デリー の空港の天気 - METARとTAF

インディラ・ガンディー国際空港 ( VIDP / DEL ) - インド デリー
飛行場実況気象(Metar)
観測時間01/20 07:30 IST (01/20 02:00 UTC)
風向・風速静穏 0m/s
視程800m
天気現象地霧
全天の4割程度の雲 雲底高度 3050m
気温11℃
湿度87%
気圧1017hPa
METARVIDP 200200Z 00000KT 0800 R28/1700 R29/1900 MIFG SCT100 11/09 Q1017 NOSIG
過去の天気等 Google飛行場航空写真 Wunderground天気予報

過去48時間のMETAR

飛行場予報(TAF)
発表時間: 1/20 04:30 IST (1/19 23:00 UTC)
予報対象時間: 20日5時 IST ~ 21日11時 IST
風向・風速静穏
視程500m
天気現象
少しの雲 雲底高度 1220m
全天の4割程度の雲 雲底高度 3050m
20日8時 IST ~ 20日10時 IST に徐々に
風向・風速東 3m/s
視程1200m
天気現象もや 煙霧
20日12時 IST ~ 20日14時 IST に徐々に
風向・風速東 4m/s
視程2500m
天気現象煙霧
20日17時 IST ~ 20日20時 IST に徐々に
風向・風速東 3m/s 瞬間風速 8m/s
視程1500m
天気現象煙霧
全天の4割程度の雲 雲底高度 910m
全天の8割程度の雲 雲底高度 3050m
20日20時 IST ~ 20日22時 IST に徐々に
風向・風速静穏
視程1000m
天気現象もや
21日4時 IST ~ 21日8時 IST に徐々に
視程800m
天気現象雷雨
全天の4割程度の雲 雲底高度 910m
少しの積乱雲 雲底高度 1070m
全天を覆う雲 雲底高度 2440m
21日10時 IST ~ 21日11時 IST に徐々に
風向・風速東南東 3m/s
視程2000m
天気現象もや 煙霧
TAF VIDP 192300Z 2000/2106 00000KT 0500 FG FEW040 SCT100
BECMG 2003/2005 09005KT 1200 BR HZ
BECMG 2007/2009 10007KT 2500 HZ
BECMG 2012/2015 10005G15KT 1500 HZ SCT030 BKN100
BECMG 2015/2017 00000KT 1000 BR
BECMG 2023/2103 0800 TSRA SCT030 FEW035CB OVC080
BECMG 2105/2106 12006KT 2000 BR HZ